< < Back
Terminal Aerodrome Forecast


Current Version              Previous Versions:   1  2  3  4  5  6  7  8  9  

Terminal Aerodrome Forecast

242
FTUS44 KBMX 292300
TAFBHM
TAF
KBHM 292337Z 3000/3024 26008KT P6SM BKN050 BKN100
     FM300100 32008G18KT P6SM OVC040
     FM300330 34012G20KT P6SM OVC025
     FM300800 35010KT P6SM BKN035
     FM301300 36012KT P6SM SCT025 BKN250=

Latest METAR

961
SAUS70 KWBC 301200 RRG
MTRBHM
METAR KBHM 301153Z 35008KT 10SM OVC033 04/M02 A3036 RMK AO2 SLP279
T00391022 10078 20033 53013


USA.gov is the U.S. government's official web portal to all federal, state and local government web resources and services.